Forside
METAR-TAF:

METAR-TAF

Lufthavne :

Moroni, Comorerne

Breddekreds: 11-32S, længdekreds: 043-16E, højde: 29 m

Aktuelle vejr

Denne rapport blev lavet for 4 timer og 47 minutter siden, kl. 22:00 UTC
Vind 6 kt fra østsydøst
Temperatur 23°C
Fugtighed 83%
Tryk 1020 hPa
Sigt 10 km eller mere
Nogle få skyer i en højde af 2000 ft

METAR: FMCH 152200Z 11006KT 9999 FEW020 23/20 Q1020 NOSIG

Tid: 05:47 (02:47 UTC)

Vejrudsigter

Denne rapport blev lavet for 9 timer og 47 minutter siden, kl. 17:00 UTC
Foreløbig gælder fra 15 på 18 UTC til 16 på 24 UTC
Vind 5 kt fra øst
Sigt 10 km eller mere
Nogle få skyer i en højde af 2000 ft
Spredte skyer i en højde af 2500 ft
ændring
fra 16 på 04 UTC til 16 på 06 UTC
Vind 12 kt fra sydvest
Sandsynlighed 40% :
Midlertidig
fra 16 på 06 UTC til 16 på 09 UTC
Vind 15 kt fra østsydøst
ændring
fra 16 på 15 UTC til 16 på 17 UTC
Vind 4 kt fra øst

TAF: FMCH 151700Z 1518/1624 09005KT 9999 FEW020 SCT025 BECMG 1604/1606 22012KT PROB40 TEMPO 1606/1609 12015KT BECMG 1615/1617 10004KT

Vejrobservationer og prognoser fra mere end 4000 lufthavne (METAR og TAF).

De gule og røde prikker repræsenterer de meteorologiske stationer.

Flyt musen over at se navnet på stationen.

Så klik over at se vejr observationer og prognoser.

At skifte det kort: Klik på de grønne knapper med et sort kors for at zoome ind; på den grønne knap med en bindestreg for at zoome ud; eller på de grønne pile for tilstødende kort.


METAR-TAF: